sensor_id;sensor_type;location;lat;lon;timestamp;temperature;humidity
12632;DHT22;6381;45.748;12.106;2022-08-01T00:01:54;26.00;99.90
12632;DHT22;6381;45.748;12.106;2022-08-01T00:04:24;25.90;99.90
12632;DHT22;6381;45.748;12.106;2022-08-01T00:06:53;26.00;99.90
12632;DHT22;6381;45.748;12.106;2022-08-01T00:09:23;26.10;99.90
12632;DHT22;6381;45.748;12.106;2022-08-01T00:11:53;26.10;99.90
12632;DHT22;6381;45.748;12.106;2022-08-01T00:14:37;25.90;99.90
12632;DHT22;6381;45.748;12.106;2022-08-01T00:17:06;25.90;99.90
12632;DHT22;6381;45.748;12.106;2022-08-01T00:19:36;26.10;99.90
12632;DHT22;6381;45.748;12.106;2022-08-01T00:22:06;26.10;99.90
12632;DHT22;6381;45.748;12.106;2022-08-01T00:24:36;26.10;99.90
12632;DHT22;6381;45.748;12.106;2022-08-01T00:27:05;26.00;99.90
12632;DHT22;6381;45.748;12.106;2022-08-01T00:29:36;25.80;99.90
12632;DHT22;6381;45.748;12.106;2022-08-01T00:32:26;25.80;99.90
12632;DHT22;6381;45.748;12.106;2022-08-01T00:34:55;25.70;99.90
12632;DHT22;6381;45.748;12.106;2022-08-01T00:37:25;25.80;99.90
12632;DHT22;6381;45.748;12.106;2022-08-01T00:39:55;25.60;99.90
12632;DHT22;6381;45.748;12.106;2022-08-01T00:42:26;25.60;99.90
12632;DHT22;6381;45.748;12.106;2022-08-01T00:44:57;25.50;99.90
12632;DHT22;6381;45.748;12.106;2022-08-01T00:47:26;25.40;99.90
12632;DHT22;6381;45.748;12.106;2022-08-01T00:49:56;25.60;99.90
12632;DHT22;6381;45.748;12.106;2022-08-01T00:52:26;25.80;99.90
12632;DHT22;6381;45.748;12.106;2022-08-01T00:54:55;25.90;99.90
12632;DHT22;6381;45.748;12.106;2022-08-01T00:57:25;25.90;99.90
12632;DHT22;6381;45.748;12.106;2022-08-01T01:00:17;25.90;99.90
12632;DHT22;6381;45.748;12.106;2022-08-01T01:02:54;25.90;99.90
12632;DHT22;6381;45.748;12.106;2022-08-01T01:05:23;25.80;99.90
12632;DHT22;6381;45.748;12.106;2022-08-01T01:07:59;25.70;99.90
12632;DHT22;6381;45.748;12.106;2022-08-01T01:10:35;25.60;99.90
12632;DHT22;6381;45.748;12.106;2022-08-01T01:13:09;25.60;99.90
12632;DHT22;6381;45.748;12.106;2022-08-01T01:15:42;25.70;99.90
12632;DHT22;6381;45.748;12.106;2022-08-01T01:18:20;25.60;99.90
12632;DHT22;6381;45.748;12.106;2022-08-01T01:20:57;25.70;99.90
12632;DHT22;6381;45.748;12.106;2022-08-01T01:23:40;25.80;99.90
12632;DHT22;6381;45.748;12.106;2022-08-01T01:26:23;25.60;99.90
12632;DHT22;6381;45.748;12.106;2022-08-01T01:29:06;25.70;99.90
12632;DHT22;6381;45.748;12.106;2022-08-01T01:31:43;25.60;99.90
12632;DHT22;6381;45.748;12.106;2022-08-01T01:34:15;25.80;99.90
12632;DHT22;6381;45.748;12.106;2022-08-01T01:36:47;25.70;99.90
12632;DHT22;6381;45.748;12.106;2022-08-01T01:39:18;25.60;99.90
12632;DHT22;6381;45.748;12.106;2022-08-01T01:41:51;25.60;99.90
12632;DHT22;6381;45.748;12.106;2022-08-01T01:44:25;25.50;99.90
12632;DHT22;6381;45.748;12.106;2022-08-01T01:46:56;25.50;99.90
12632;DHT22;6381;45.748;12.106;2022-08-01T01:49:28;25.30;99.90
12632;DHT22;6381;45.748;12.106;2022-08-01T01:52:00;25.20;99.90
12632;DHT22;6381;45.748;12.106;2022-08-01T01:54:34;25.10;99.90
12632;DHT22;6381;45.748;12.106;2022-08-01T01:57:06;25.10;99.90
12632;DHT22;6381;45.748;12.106;2022-08-01T01:59:39;25.10;99.90
12632;DHT22;6381;45.748;12.106;2022-08-01T02:02:10;25.20;99.90
12632;DHT22;6381;45.748;12.106;2022-08-01T02:04:43;25.20;99.90
12632;DHT22;6381;45.748;12.106;2022-08-01T02:07:19;25.10;99.90
12632;DHT22;6381;45.748;12.106;2022-08-01T02:09:49;24.80;99.90
12632;DHT22;6381;45.748;12.106;2022-08-01T02:12:20;24.80;99.90
12632;DHT22;6381;45.748;12.106;2022-08-01T02:14:53;24.90;99.90
12632;DHT22;6381;45.748;12.106;2022-08-01T02:17:24;24.80;99.90
12632;DHT22;6381;45.748;12.106;2022-08-01T02:19:55;24.80;99.90
12632;DHT22;6381;45.748;12.106;2022-08-01T02:22:30;24.60;99.90
12632;DHT22;6381;45.748;12.106;2022-08-01T02:25:03;24.50;99.90
12632;DHT22;6381;45.748;12.106;2022-08-01T02:27:39;24.70;99.90
12632;DHT22;6381;45.748;12.106;2022-08-01T02:30:13;24.70;99.70
12632;DHT22;6381;45.748;12.106;2022-08-01T02:32:48;24.50;99.70
12632;DHT22;6381;45.748;12.106;2022-08-01T02:35:22;24.50;99.60
12632;DHT22;6381;45.748;12.106;2022-08-01T02:37:53;24.50;99.50
12632;DHT22;6381;45.748;12.106;2022-08-01T02:40:24;24.50;99.40
12632;DHT22;6381;45.748;12.106;2022-08-01T02:42:57;24.50;99.30
12632;DHT22;6381;45.748;12.106;2022-08-01T02:45:31;24.50;99.30
12632;DHT22;6381;45.748;12.106;2022-08-01T02:48:06;24.60;99.40
12632;DHT22;6381;45.748;12.106;2022-08-01T02:50:37;24.70;99.50
12632;DHT22;6381;45.748;12.106;2022-08-01T02:53:09;23.90;99.30
12632;DHT22;6381;45.748;12.106;2022-08-01T02:55:41;24.80;99.50
12632;DHT22;6381;45.748;12.106;2022-08-01T02:58:14;24.80;99.60
12632;DHT22;6381;45.748;12.106;2022-08-01T03:00:47;24.80;99.80
12632;DHT22;6381;45.748;12.106;2022-08-01T03:03:17;25.00;99.50
12632;DHT22;6381;45.748;12.106;2022-08-01T03:05:47;24.80;99.90
12632;DHT22;6381;45.748;12.106;2022-08-01T03:08:20;24.80;99.90
12632;DHT22;6381;45.748;12.106;2022-08-01T03:10:51;24.90;99.60
12632;DHT22;6381;45.748;12.106;2022-08-01T03:13:22;24.60;99.90
12632;DHT22;6381;45.748;12.106;2022-08-01T03:15:54;24.70;99.90
12632;DHT22;6381;45.748;12.106;2022-08-01T03:18:25;24.60;99.90
12632;DHT22;6381;45.748;12.106;2022-08-01T03:20:56;24.50;99.90
12632;DHT22;6381;45.748;12.106;2022-08-01T03:23:30;24.30;99.90
12632;DHT22;6381;45.748;12.106;2022-08-01T03:26:05;24.30;99.90
12632;DHT22;6381;45.748;12.106;2022-08-01T03:28:36;24.50;99.90
12632;DHT22;6381;45.748;12.106;2022-08-01T03:31:07;24.60;99.90
12632;DHT22;6381;45.748;12.106;2022-08-01T03:33:38;24.70;99.90
12632;DHT22;6381;45.748;12.106;2022-08-01T03:36:09;24.60;99.70
12632;DHT22;6381;45.748;12.106;2022-08-01T03:38:41;24.20;99.90
12632;DHT22;6381;45.748;12.106;2022-08-01T03:41:16;24.00;99.90
12632;DHT22;6381;45.748;12.106;2022-08-01T03:43:54;24.30;99.90
12632;DHT22;6381;45.748;12.106;2022-08-01T03:46:32;24.40;99.90
12632;DHT22;6381;45.748;12.106;2022-08-01T03:49:10;24.50;99.90
12632;DHT22;6381;45.748;12.106;2022-08-01T03:51:41;24.40;99.40
12632;DHT22;6381;45.748;12.106;2022-08-01T03:54:13;24.40;99.30
12632;DHT22;6381;45.748;12.106;2022-08-01T03:56:44;24.40;99.10
12632;DHT22;6381;45.748;12.106;2022-08-01T03:59:16;24.30;98.80
12632;DHT22;6381;45.748;12.106;2022-08-01T04:01:48;24.30;98.60
12632;DHT22;6381;45.748;12.106;2022-08-01T04:04:18;24.30;98.50
12632;DHT22;6381;45.748;12.106;2022-08-01T04:06:47;24.30;98.50
12632;DHT22;6381;45.748;12.106;2022-08-01T04:09:21;24.00;98.60
12632;DHT22;6381;45.748;12.106;2022-08-01T04:11:51;24.00;98.70
12632;DHT22;6381;45.748;12.106;2022-08-01T04:14:20;24.10;98.70
12632;DHT22;6381;45.748;12.106;2022-08-01T04:16:51;24.00;98.50
12632;DHT22;6381;45.748;12.106;2022-08-01T04:19:21;24.10;98.30
12632;DHT22;6381;45.748;12.106;2022-08-01T04:21:51;24.20;98.70
12632;DHT22;6381;45.748;12.106;2022-08-01T04:24:22;24.40;98.20
12632;DHT22;6381;45.748;12.106;2022-08-01T04:26:54;24.30;98.70
12632;DHT22;6381;45.748;12.106;2022-08-01T04:29:24;24.00;97.70
12632;DHT22;6381;45.748;12.106;2022-08-01T04:31:57;24.10;97.60
12632;DHT22;6381;45.748;12.106;2022-08-01T04:34:31;24.30;97.60
12632;DHT22;6381;45.748;12.106;2022-08-01T04:37:03;24.50;97.50
12632;DHT22;6381;45.748;12.106;2022-08-01T04:39:34;24.60;96.90
12632;DHT22;6381;45.748;12.106;2022-08-01T04:42:18;24.60;97.30
12632;DHT22;6381;45.748;12.106;2022-08-01T04:45:00;24.60;97.10
12632;DHT22;6381;45.748;12.106;2022-08-01T04:47:32;24.30;96.50
12632;DHT22;6381;45.748;12.106;2022-08-01T04:50:04;24.30;96.00
12632;DHT22;6381;45.748;12.106;2022-08-01T04:52:37;24.50;95.90
12632;DHT22;6381;45.748;12.106;2022-08-01T04:55:10;24.50;95.30
12632;DHT22;6381;45.748;12.106;2022-08-01T04:57:41;24.50;95.40
12632;DHT22;6381;45.748;12.106;2022-08-01T05:00:13;24.70;95.50
12632;DHT22;6381;45.748;12.106;2022-08-01T05:02:47;24.70;95.20
12632;DHT22;6381;45.748;12.106;2022-08-01T05:05:17;24.60;94.70
12632;DHT22;6381;45.748;12.106;2022-08-01T05:07:48;24.80;94.40
12632;DHT22;6381;45.748;12.106;2022-08-01T05:10:17;25.10;95.10
12632;DHT22;6381;45.748;12.106;2022-08-01T05:12:47;25.20;95.50
12632;DHT22;6381;45.748;12.106;2022-08-01T05:15:17;24.90;94.80
12632;DHT22;6381;45.748;12.106;2022-08-01T05:17:55;24.80;95.50
12632;DHT22;6381;45.748;12.106;2022-08-01T05:20:25;25.00;95.60
12632;DHT22;6381;45.748;12.106;2022-08-01T05:22:55;25.10;96.00
12632;DHT22;6381;45.748;12.106;2022-08-01T05:25:25;25.10;96.40
12632;DHT22;6381;45.748;12.106;2022-08-01T05:28:16;24.90;97.20
12632;DHT22;6381;45.748;12.106;2022-08-01T05:30:45;24.50;97.30
12632;DHT22;6381;45.748;12.106;2022-08-01T05:33:17;25.20;97.20
12632;DHT22;6381;45.748;12.106;2022-08-01T05:35:48;25.10;97.70
12632;DHT22;6381;45.748;12.106;2022-08-01T05:38:19;25.20;97.80
12632;DHT22;6381;45.748;12.106;2022-08-01T05:40:48;25.30;97.90
12632;DHT22;6381;45.748;12.106;2022-08-01T05:43:18;25.70;97.50
12632;DHT22;6381;45.748;12.106;2022-08-01T05:45:54;25.90;97.00
12632;DHT22;6381;45.748;12.106;2022-08-01T05:48:26;25.90;97.00
12632;DHT22;6381;45.748;12.106;2022-08-01T05:50:55;26.10;96.70
12632;DHT22;6381;45.748;12.106;2022-08-01T05:53:25;26.10;96.10
12632;DHT22;6381;45.748;12.106;2022-08-01T05:55:55;26.20;96.10
12632;DHT22;6381;45.748;12.106;2022-08-01T05:58:25;26.30;95.90
12632;DHT22;6381;45.748;12.106;2022-08-01T06:00:54;26.40;96.00
12632;DHT22;6381;45.748;12.106;2022-08-01T06:03:25;26.50;96.30
12632;DHT22;6381;45.748;12.106;2022-08-01T06:05:59;26.30;96.30
12632;DHT22;6381;45.748;12.106;2022-08-01T06:08:28;26.10;96.20
12632;DHT22;6381;45.748;12.106;2022-08-01T06:10:58;26.30;96.70
12632;DHT22;6381;45.748;12.106;2022-08-01T06:13:27;26.30;97.10
12632;DHT22;6381;45.748;12.106;2022-08-01T06:15:57;26.50;96.80
12632;DHT22;6381;45.748;12.106;2022-08-01T06:18:28;26.50;96.90
12632;DHT22;6381;45.748;12.106;2022-08-01T06:20:57;26.60;97.20
12632;DHT22;6381;45.748;12.106;2022-08-01T06:23:27;26.60;97.00
12632;DHT22;6381;45.748;12.106;2022-08-01T06:25:59;26.40;97.70
12632;DHT22;6381;45.748;12.106;2022-08-01T06:28:29;26.70;97.60
12632;DHT22;6381;45.748;12.106;2022-08-01T06:30:59;26.70;97.60
12632;DHT22;6381;45.748;12.106;2022-08-01T06:33:30;26.90;97.90
12632;DHT22;6381;45.748;12.106;2022-08-01T06:36:00;26.80;97.70
12632;DHT22;6381;45.748;12.106;2022-08-01T06:38:30;27.00;98.10
12632;DHT22;6381;45.748;12.106;2022-08-01T06:41:00;26.80;97.70
12632;DHT22;6381;45.748;12.106;2022-08-01T06:43:30;27.00;97.80
12632;DHT22;6381;45.748;12.106;2022-08-01T06:45:59;27.10;97.80
12632;DHT22;6381;45.748;12.106;2022-08-01T06:48:32;27.20;97.40
12632;DHT22;6381;45.748;12.106;2022-08-01T06:51:03;27.00;97.80
12632;DHT22;6381;45.748;12.106;2022-08-01T06:53:41;27.10;98.10
12632;DHT22;6381;45.748;12.106;2022-08-01T06:56:11;27.20;98.30
12632;DHT22;6381;45.748;12.106;2022-08-01T06:58:41;27.30;98.00
12632;DHT22;6381;45.748;12.106;2022-08-01T07:01:10;27.00;98.70
12632;DHT22;6381;45.748;12.106;2022-08-01T07:03:41;27.10;98.70
12632;DHT22;6381;45.748;12.106;2022-08-01T07:06:22;27.20;98.50
12632;DHT22;6381;45.748;12.106;2022-08-01T07:08:52;27.10;98.90
12632;DHT22;6381;45.748;12.106;2022-08-01T07:11:23;27.30;98.70
12632;DHT22;6381;45.748;12.106;2022-08-01T07:13:52;27.50;98.30
12632;DHT22;6381;45.748;12.106;2022-08-01T07:16:22;27.40;97.90
12632;DHT22;6381;45.748;12.106;2022-08-01T07:18:53;27.10;97.70
12632;DHT22;6381;45.748;12.106;2022-08-01T07:21:22;27.00;97.90
12632;DHT22;6381;45.748;12.106;2022-08-01T07:24:06;27.10;98.00
12632;DHT22;6381;45.748;12.106;2022-08-01T07:26:41;27.40;98.20
12632;DHT22;6381;45.748;12.106;2022-08-01T07:29:21;27.50;98.00
12632;DHT22;6381;45.748;12.106;2022-08-01T07:31:51;27.70;97.80
12632;DHT22;6381;45.748;12.106;2022-08-01T07:34:24;27.40;97.50
12632;DHT22;6381;45.748;12.106;2022-08-01T07:36:53;27.10;97.50
12632;DHT22;6381;45.748;12.106;2022-08-01T07:39:23;27.00;97.90
12632;DHT22;6381;45.748;12.106;2022-08-01T07:41:52;27.20;98.10
12632;DHT22;6381;45.748;12.106;2022-08-01T07:44:34;27.40;97.90
12632;DHT22;6381;45.748;12.106;2022-08-01T07:47:04;27.80;97.70
12632;DHT22;6381;45.748;12.106;2022-08-01T07:49:36;27.70;97.10
12632;DHT22;6381;45.748;12.106;2022-08-01T07:52:09;27.60;96.90
12632;DHT22;6381;45.748;12.106;2022-08-01T07:54:39;28.00;97.40
12632;DHT22;6381;45.748;12.106;2022-08-01T07:57:09;28.20;96.10
12632;DHT22;6381;45.748;12.106;2022-08-01T07:59:38;28.10;95.90
12632;DHT22;6381;45.748;12.106;2022-08-01T08:02:08;28.20;96.00
12632;DHT22;6381;45.748;12.106;2022-08-01T08:04:39;28.20;95.10
12632;DHT22;6381;45.748;12.106;2022-08-01T08:07:15;28.40;95.20
12632;DHT22;6381;45.748;12.106;2022-08-01T08:09:44;28.20;94.60
12632;DHT22;6381;45.748;12.106;2022-08-01T08:12:17;28.50;95.10
12632;DHT22;6381;45.748;12.106;2022-08-01T08:14:56;28.60;94.60
12632;DHT22;6381;45.748;12.106;2022-08-01T08:17:26;28.60;94.90
12632;DHT22;6381;45.748;12.106;2022-08-01T08:20:06;28.80;92.90
12632;DHT22;6381;45.748;12.106;2022-08-01T08:22:37;28.60;93.50
12632;DHT22;6381;45.748;12.106;2022-08-01T08:25:07;28.60;93.40
12632;DHT22;6381;45.748;12.106;2022-08-01T08:27:38;28.70;93.60
12632;DHT22;6381;45.748;12.106;2022-08-01T08:30:08;28.80;93.80
12632;DHT22;6381;45.748;12.106;2022-08-01T08:32:39;29.30;93.00
12632;DHT22;6381;45.748;12.106;2022-08-01T08:35:10;29.40;91.30
12632;DHT22;6381;45.748;12.106;2022-08-01T08:37:49;29.30;91.30
12632;DHT22;6381;45.748;12.106;2022-08-01T08:40:32;29.50;91.30
12632;DHT22;6381;45.748;12.106;2022-08-01T08:43:09;29.40;91.20
12632;DHT22;6381;45.748;12.106;2022-08-01T08:45:40;29.50;91.10
12632;DHT22;6381;45.748;12.106;2022-08-01T08:48:25;29.50;90.40
12632;DHT22;6381;45.748;12.106;2022-08-01T08:50:58;29.20;90.50
12632;DHT22;6381;45.748;12.106;2022-08-01T08:53:29;29.30;90.60
12632;DHT22;6381;45.748;12.106;2022-08-01T08:56:02;29.50;90.60
12632;DHT22;6381;45.748;12.106;2022-08-01T08:58:32;29.40;90.20
12632;DHT22;6381;45.748;12.106;2022-08-01T09:01:05;29.30;90.10
12632;DHT22;6381;45.748;12.106;2022-08-01T09:03:36;29.60;90.30
12632;DHT22;6381;45.748;12.106;2022-08-01T09:06:11;29.90;90.00
12632;DHT22;6381;45.748;12.106;2022-08-01T09:08:41;30.00;87.60
12632;DHT22;6381;45.748;12.106;2022-08-01T09:11:10;29.90;88.20
12632;DHT22;6381;45.748;12.106;2022-08-01T09:14:03;30.30;88.00
12632;DHT22;6381;45.748;12.106;2022-08-01T09:16:34;30.20;87.90
12632;DHT22;6381;45.748;12.106;2022-08-01T09:19:09;29.90;85.40
12632;DHT22;6381;45.748;12.106;2022-08-01T09:21:57;29.90;84.20
12632;DHT22;6381;45.748;12.106;2022-08-01T09:24:30;29.60;85.50
12632;DHT22;6381;45.748;12.106;2022-08-01T09:27:14;30.00;86.80
12632;DHT22;6381;45.748;12.106;2022-08-01T09:29:48;29.90;81.20
12632;DHT22;6381;45.748;12.106;2022-08-01T09:32:30;29.90;81.10
12632;DHT22;6381;45.748;12.106;2022-08-01T09:35:24;30.00;77.90
12632;DHT22;6381;45.748;12.106;2022-08-01T09:38:19;30.00;77.10
12632;DHT22;6381;45.748;12.106;2022-08-01T09:40:52;30.10;76.90
12632;DHT22;6381;45.748;12.106;2022-08-01T09:43:25;29.80;82.50
12632;DHT22;6381;45.748;12.106;2022-08-01T09:45:58;30.20;83.50
12632;DHT22;6381;45.748;12.106;2022-08-01T09:48:28;30.20;80.70
12632;DHT22;6381;45.748;12.106;2022-08-01T09:51:00;30.10;80.10
12632;DHT22;6381;45.748;12.106;2022-08-01T09:53:44;30.50;78.90
12632;DHT22;6381;45.748;12.106;2022-08-01T09:56:20;30.90;76.60
12632;DHT22;6381;45.748;12.106;2022-08-01T09:58:53;31.10;73.60
12632;DHT22;6381;45.748;12.106;2022-08-01T10:01:27;30.70;72.40
12632;DHT22;6381;45.748;12.106;2022-08-01T10:04:09;30.40;73.50
12632;DHT22;6381;45.748;12.106;2022-08-01T10:06:40;30.70;74.60
12632;DHT22;6381;45.748;12.106;2022-08-01T10:09:13;31.30;74.60
12632;DHT22;6381;45.748;12.106;2022-08-01T10:11:43;31.30;75.10
12632;DHT22;6381;45.748;12.106;2022-08-01T10:14:14;31.40;75.80
12632;DHT22;6381;45.748;12.106;2022-08-01T10:16:48;31.40;74.50
12632;DHT22;6381;45.748;12.106;2022-08-01T10:19:27;31.20;75.00
12632;DHT22;6381;45.748;12.106;2022-08-01T10:21:59;31.20;77.20
12632;DHT22;6381;45.748;12.106;2022-08-01T10:24:31;31.70;76.10
12632;DHT22;6381;45.748;12.106;2022-08-01T10:27:03;31.40;73.40
12632;DHT22;6381;45.748;12.106;2022-08-01T10:29:41;30.90;68.00
12632;DHT22;6381;45.748;12.106;2022-08-01T10:32:32;31.30;68.10
12632;DHT22;6381;45.748;12.106;2022-08-01T10:35:04;31.80;66.70
12632;DHT22;6381;45.748;12.106;2022-08-01T10:37:42;31.70;66.20
12632;DHT22;6381;45.748;12.106;2022-08-01T10:40:21;31.80;66.40
12632;DHT22;6381;45.748;12.106;2022-08-01T10:42:57;31.30;64.30
12632;DHT22;6381;45.748;12.106;2022-08-01T10:45:27;31.20;66.40
12632;DHT22;6381;45.748;12.106;2022-08-01T10:48:02;31.80;64.70
12632;DHT22;6381;45.748;12.106;2022-08-01T10:50:37;32.10;64.10
12632;DHT22;6381;45.748;12.106;2022-08-01T10:53:13;32.10;62.50
12632;DHT22;6381;45.748;12.106;2022-08-01T10:56:03;32.20;64.70
12632;DHT22;6381;45.748;12.106;2022-08-01T10:58:36;32.50;62.90
12632;DHT22;6381;45.748;12.106;2022-08-01T11:01:19;32.30;60.90
12632;DHT22;6381;45.748;12.106;2022-08-01T11:04:13;31.80;62.20
12632;DHT22;6381;45.748;12.106;2022-08-01T11:07:02;31.70;61.10
12632;DHT22;6381;45.748;12.106;2022-08-01T11:09:43;32.10;61.70
12632;DHT22;6381;45.748;12.106;2022-08-01T11:12:19;32.20;61.00
12632;DHT22;6381;45.748;12.106;2022-08-01T11:15:17;32.70;60.90
12632;DHT22;6381;45.748;12.106;2022-08-01T11:18:02;32.70;61.00
12632;DHT22;6381;45.748;12.106;2022-08-01T11:20:55;33.00;61.30
12632;DHT22;6381;45.748;12.106;2022-08-01T11:23:48;33.40;62.20
12632;DHT22;6381;45.748;12.106;2022-08-01T11:26:20;33.00;62.90
12632;DHT22;6381;45.748;12.106;2022-08-01T11:29:18;32.50;61.30
12632;DHT22;6381;45.748;12.106;2022-08-01T11:31:49;33.00;61.80
12632;DHT22;6381;45.748;12.106;2022-08-01T11:34:20;33.70;62.70
12632;DHT22;6381;45.748;12.106;2022-08-01T11:37:25;33.40;62.10
12632;DHT22;6381;45.748;12.106;2022-08-01T11:40:18;33.60;61.30
12632;DHT22;6381;45.748;12.106;2022-08-01T11:43:17;33.50;59.00
12632;DHT22;6381;45.748;12.106;2022-08-01T11:45:50;33.40;59.30
12632;DHT22;6381;45.748;12.106;2022-08-01T11:48:22;33.50;59.50
12632;DHT22;6381;45.748;12.106;2022-08-01T11:50:55;33.80;60.80
12632;DHT22;6381;45.748;12.106;2022-08-01T11:53:29;33.70;58.90
12632;DHT22;6381;45.748;12.106;2022-08-01T11:56:03;33.80;58.20
12632;DHT22;6381;45.748;12.106;2022-08-01T11:58:33;33.60;61.00
12632;DHT22;6381;45.748;12.106;2022-08-01T12:01:04;33.60;58.10
12632;DHT22;6381;45.748;12.106;2022-08-01T12:03:34;34.00;59.90
12632;DHT22;6381;45.748;12.106;2022-08-01T12:06:04;34.30;55.40
12632;DHT22;6381;45.748;12.106;2022-08-01T12:08:34;34.30;54.50
12632;DHT22;6381;45.748;12.106;2022-08-01T12:11:04;34.20;54.80
12632;DHT22;6381;45.748;12.106;2022-08-01T12:13:40;34.10;53.20
12632;DHT22;6381;45.748;12.106;2022-08-01T12:16:12;34.20;53.60
12632;DHT22;6381;45.748;12.106;2022-08-01T12:18:43;34.20;53.10
12632;DHT22;6381;45.748;12.106;2022-08-01T12:21:12;34.00;52.70
12632;DHT22;6381;45.748;12.106;2022-08-01T12:23:42;34.10;53.10
12632;DHT22;6381;45.748;12.106;2022-08-01T12:26:11;34.20;53.20
12632;DHT22;6381;45.748;12.106;2022-08-01T12:28:58;33.50;53.90
12632;DHT22;6381;45.748;12.106;2022-08-01T12:31:34;34.20;54.40
12632;DHT22;6381;45.748;12.106;2022-08-01T12:34:30;34.30;53.20
12632;DHT22;6381;45.748;12.106;2022-08-01T12:37:02;34.00;53.60
12632;DHT22;6381;45.748;12.106;2022-08-01T12:39:33;35.00;53.80
12632;DHT22;6381;45.748;12.106;2022-08-01T12:42:07;34.80;54.30
12632;DHT22;6381;45.748;12.106;2022-08-01T12:44:39;35.00;57.00
12632;DHT22;6381;45.748;12.106;2022-08-01T12:47:11;35.30;59.40
12632;DHT22;6381;45.748;12.106;2022-08-01T12:49:42;35.40;60.60
12632;DHT22;6381;45.748;12.106;2022-08-01T12:52:13;35.40;59.00
12632;DHT22;6381;45.748;12.106;2022-08-01T12:55:02;36.00;58.50
12632;DHT22;6381;45.748;12.106;2022-08-01T12:57:37;35.90;57.40
12632;DHT22;6381;45.748;12.106;2022-08-01T13:00:13;35.60;55.90
12632;DHT22;6381;45.748;12.106;2022-08-01T13:02:45;35.90;56.20
12632;DHT22;6381;45.748;12.106;2022-08-01T13:05:15;36.00;57.30
12632;DHT22;6381;45.748;12.106;2022-08-01T13:07:49;36.00;55.20
12632;DHT22;6381;45.748;12.106;2022-08-01T13:10:26;36.70;55.60
12632;DHT22;6381;45.748;12.106;2022-08-01T13:12:57;36.70;54.90
12632;DHT22;6381;45.748;12.106;2022-08-01T13:15:29;35.70;56.50
12632;DHT22;6381;45.748;12.106;2022-08-01T13:18:22;35.50;55.30
12632;DHT22;6381;45.748;12.106;2022-08-01T13:21:08;35.80;55.90
12632;DHT22;6381;45.748;12.106;2022-08-01T13:23:38;35.10;56.00
12632;DHT22;6381;45.748;12.106;2022-08-01T13:26:42;35.80;56.40
12632;DHT22;6381;45.748;12.106;2022-08-01T13:29:14;35.50;55.50
12632;DHT22;6381;45.748;12.106;2022-08-01T13:31:44;34.40;57.30
12632;DHT22;6381;45.748;12.106;2022-08-01T13:34:16;34.70;56.90
12632;DHT22;6381;45.748;12.106;2022-08-01T13:36:46;34.60;57.00
12632;DHT22;6381;45.748;12.106;2022-08-01T13:39:16;34.40;58.20
12632;DHT22;6381;45.748;12.106;2022-08-01T13:42:03;35.50;56.60
12632;DHT22;6381;45.748;12.106;2022-08-01T13:44:35;36.00;56.70
12632;DHT22;6381;45.748;12.106;2022-08-01T13:47:05;36.50;56.20
12632;DHT22;6381;45.748;12.106;2022-08-01T13:49:46;36.50;57.60
12632;DHT22;6381;45.748;12.106;2022-08-01T13:52:16;36.00;56.80
12632;DHT22;6381;45.748;12.106;2022-08-01T13:54:45;35.90;56.00
12632;DHT22;6381;45.748;12.106;2022-08-01T13:57:17;36.50;57.00
12632;DHT22;6381;45.748;12.106;2022-08-01T13:59:46;36.30;57.10
12632;DHT22;6381;45.748;12.106;2022-08-01T14:02:16;36.20;56.70
12632;DHT22;6381;45.748;12.106;2022-08-01T14:04:47;36.30;56.70
12632;DHT22;6381;45.748;12.106;2022-08-01T14:07:17;36.20;55.20
12632;DHT22;6381;45.748;12.106;2022-08-01T14:09:47;36.20;56.40
12632;DHT22;6381;45.748;12.106;2022-08-01T14:12:37;35.70;56.30
12632;DHT22;6381;45.748;12.106;2022-08-01T14:15:08;36.20;57.60
12632;DHT22;6381;45.748;12.106;2022-08-01T14:17:37;36.40;56.30
12632;DHT22;6381;45.748;12.106;2022-08-01T14:20:16;36.00;56.50
12632;DHT22;6381;45.748;12.106;2022-08-01T14:22:47;36.30;56.90
12632;DHT22;6381;45.748;12.106;2022-08-01T14:25:17;36.40;56.50
12632;DHT22;6381;45.748;12.106;2022-08-01T14:28:07;36.70;55.90
12632;DHT22;6381;45.748;12.106;2022-08-01T14:30:39;36.80;57.10
12632;DHT22;6381;45.748;12.106;2022-08-01T14:33:10;37.00;56.00
12632;DHT22;6381;45.748;12.106;2022-08-01T14:35:41;36.40;56.50
12632;DHT22;6381;45.748;12.106;2022-08-01T14:38:31;36.50;54.90
12632;DHT22;6381;45.748;12.106;2022-08-01T14:41:01;36.60;55.70
12632;DHT22;6381;45.748;12.106;2022-08-01T14:43:31;36.80;54.90
12632;DHT22;6381;45.748;12.106;2022-08-01T14:46:01;37.10;55.10
12632;DHT22;6381;45.748;12.106;2022-08-01T14:48:31;36.80;55.10
12632;DHT22;6381;45.748;12.106;2022-08-01T14:51:02;36.90;54.70
12632;DHT22;6381;45.748;12.106;2022-08-01T14:53:32;36.90;54.30
12632;DHT22;6381;45.748;12.106;2022-08-01T14:56:02;36.60;53.90
12632;DHT22;6381;45.748;12.106;2022-08-01T14:58:32;36.80;53.30
12632;DHT22;6381;45.748;12.106;2022-08-01T15:01:02;36.70;52.60
12632;DHT22;6381;45.748;12.106;2022-08-01T15:03:33;36.50;53.70
12632;DHT22;6381;45.748;12.106;2022-08-01T15:06:05;36.80;53.30
12632;DHT22;6381;45.748;12.106;2022-08-01T15:08:37;36.80;52.80
12632;DHT22;6381;45.748;12.106;2022-08-01T15:11:07;37.00;52.50
12632;DHT22;6381;45.748;12.106;2022-08-01T15:13:37;37.70;52.30
12632;DHT22;6381;45.748;12.106;2022-08-01T15:16:10;37.70;51.10
12632;DHT22;6381;45.748;12.106;2022-08-01T15:18:41;37.50;51.60
12632;DHT22;6381;45.748;12.106;2022-08-01T15:21:12;38.30;50.20
12632;DHT22;6381;45.748;12.106;2022-08-01T15:24:02;38.00;50.30
12632;DHT22;6381;45.748;12.106;2022-08-01T15:26:31;37.70;50.30
12632;DHT22;6381;45.748;12.106;2022-08-01T15:29:01;37.70;51.00
12632;DHT22;6381;45.748;12.106;2022-08-01T15:31:30;37.40;51.40
12632;DHT22;6381;45.748;12.106;2022-08-01T15:34:05;37.60;51.20
12632;DHT22;6381;45.748;12.106;2022-08-01T15:36:37;37.50;51.20
12632;DHT22;6381;45.748;12.106;2022-08-01T15:39:10;37.50;50.90
12632;DHT22;6381;45.748;12.106;2022-08-01T15:41:39;37.60;51.90
12632;DHT22;6381;45.748;12.106;2022-08-01T15:44:09;37.20;51.30
12632;DHT22;6381;45.748;12.106;2022-08-01T15:46:38;37.20;51.70
12632;DHT22;6381;45.748;12.106;2022-08-01T15:49:08;37.30;51.20
12632;DHT22;6381;45.748;12.106;2022-08-01T15:51:40;37.60;51.00
12632;DHT22;6381;45.748;12.106;2022-08-01T15:54:11;37.60;51.20
12632;DHT22;6381;45.748;12.106;2022-08-01T15:56:41;37.10;50.70
12632;DHT22;6381;45.748;12.106;2022-08-01T15:59:11;36.80;50.70
12632;DHT22;6381;45.748;12.106;2022-08-01T16:01:41;36.40;50.80
12632;DHT22;6381;45.748;12.106;2022-08-01T16:04:10;36.70;50.50
12632;DHT22;6381;45.748;12.106;2022-08-01T16:06:42;36.50;51.30
12632;DHT22;6381;45.748;12.106;2022-08-01T16:09:11;36.40;50.60
12632;DHT22;6381;45.748;12.106;2022-08-01T16:11:46;36.30;50.60